sensor_id;sensor_type;location;lat;lon;timestamp;temperature;humidity
33023;DHT22;19390;51.460;5.710;2023-06-04T00:00:42;11.20;99.90
33023;DHT22;19390;51.460;5.710;2023-06-04T00:03:07;11.00;99.90
33023;DHT22;19390;51.460;5.710;2023-06-04T00:05:33;11.10;99.90
33023;DHT22;19390;51.460;5.710;2023-06-04T00:07:59;10.90;99.90
33023;DHT22;19390;51.460;5.710;2023-06-04T00:10:24;10.90;99.90
33023;DHT22;19390;51.460;5.710;2023-06-04T00:12:50;10.70;99.90
33023;DHT22;19390;51.460;5.710;2023-06-04T00:15:16;10.80;99.90
33023;DHT22;19390;51.460;5.710;2023-06-04T00:17:44;10.90;99.90
33023;DHT22;19390;51.460;5.710;2023-06-04T00:20:10;10.80;99.90
33023;DHT22;19390;51.460;5.710;2023-06-04T00:22:36;10.80;99.90
33023;DHT22;19390;51.460;5.710;2023-06-04T00:25:02;10.80;99.90
33023;DHT22;19390;51.460;5.710;2023-06-04T00:27:28;10.80;99.90
33023;DHT22;19390;51.460;5.710;2023-06-04T00:29:54;10.90;99.90
33023;DHT22;19390;51.460;5.710;2023-06-04T00:32:20;10.90;99.90
33023;DHT22;19390;51.460;5.710;2023-06-04T00:34:55;11.00;99.90
33023;DHT22;19390;51.460;5.710;2023-06-04T00:37:23;10.90;99.90
33023;DHT22;19390;51.460;5.710;2023-06-04T00:39:49;11.00;99.90
33023;DHT22;19390;51.460;5.710;2023-06-04T00:42:15;10.90;99.90
33023;DHT22;19390;51.460;5.710;2023-06-04T00:44:40;11.00;99.90
33023;DHT22;19390;51.460;5.710;2023-06-04T00:47:17;11.10;99.90
33023;DHT22;19390;51.460;5.710;2023-06-04T00:49:43;11.00;99.90
33023;DHT22;19390;51.460;5.710;2023-06-04T00:52:11;11.00;99.90
33023;DHT22;19390;51.460;5.710;2023-06-04T00:54:37;11.00;99.90
33023;DHT22;19390;51.460;5.710;2023-06-04T00:57:04;10.80;99.90
33023;DHT22;19390;51.460;5.710;2023-06-04T00:59:32;10.90;99.90
33023;DHT22;19390;51.460;5.710;2023-06-04T01:07:16;11.00;99.90
33023;DHT22;19390;51.460;5.710;2023-06-04T01:09:44;10.90;99.90
33023;DHT22;19390;51.460;5.710;2023-06-04T01:12:11;11.00;99.90
33023;DHT22;19390;51.460;5.710;2023-06-04T01:14:37;11.00;99.90
33023;DHT22;19390;51.460;5.710;2023-06-04T01:17:31;10.90;99.90
33023;DHT22;19390;51.460;5.710;2023-06-04T01:20:23;11.00;99.90
33023;DHT22;19390;51.460;5.710;2023-06-04T01:25:36;10.90;99.90
33023;DHT22;19390;51.460;5.710;2023-06-04T01:28:05;11.00;99.90
33023;DHT22;19390;51.460;5.710;2023-06-04T01:30:34;11.00;99.90
33023;DHT22;19390;51.460;5.710;2023-06-04T01:33:02;10.90;99.90
33023;DHT22;19390;51.460;5.710;2023-06-04T01:35:29;10.90;99.90
33023;DHT22;19390;51.460;5.710;2023-06-04T01:37:56;10.70;99.90
33023;DHT22;19390;51.460;5.710;2023-06-04T01:40:22;10.70;99.90
33023;DHT22;19390;51.460;5.710;2023-06-04T01:42:48;10.70;99.90
33023;DHT22;19390;51.460;5.710;2023-06-04T01:45:14;10.80;99.90
33023;DHT22;19390;51.460;5.710;2023-06-04T01:47:39;10.50;99.90
33023;DHT22;19390;51.460;5.710;2023-06-04T01:50:06;10.70;99.90
33023;DHT22;19390;51.460;5.710;2023-06-04T01:52:38;10.70;99.90
33023;DHT22;19390;51.460;5.710;2023-06-04T01:55:04;10.70;99.90
33023;DHT22;19390;51.460;5.710;2023-06-04T01:57:30;10.60;99.90
33023;DHT22;19390;51.460;5.710;2023-06-04T01:59:56;10.60;99.90
33023;DHT22;19390;51.460;5.710;2023-06-04T02:02:21;10.50;99.90
33023;DHT22;19390;51.460;5.710;2023-06-04T02:04:47;10.40;99.90
33023;DHT22;19390;51.460;5.710;2023-06-04T02:07:13;10.40;99.90
33023;DHT22;19390;51.460;5.710;2023-06-04T02:09:43;10.40;99.90
33023;DHT22;19390;51.460;5.710;2023-06-04T02:12:09;10.30;99.90
33023;DHT22;19390;51.460;5.710;2023-06-04T02:14:34;10.10;99.90
33023;DHT22;19390;51.460;5.710;2023-06-04T02:17:00;9.90;99.90
33023;DHT22;19390;51.460;5.710;2023-06-04T02:19:26;9.80;99.90
33023;DHT22;19390;51.460;5.710;2023-06-04T02:21:55;9.90;99.90
33023;DHT22;19390;51.460;5.710;2023-06-04T02:24:22;9.80;99.90
33023;DHT22;19390;51.460;5.710;2023-06-04T02:26:47;9.90;99.90
33023;DHT22;19390;51.460;5.710;2023-06-04T02:29:13;9.80;99.90
33023;DHT22;19390;51.460;5.710;2023-06-04T02:31:38;9.90;99.90
33023;DHT22;19390;51.460;5.710;2023-06-04T02:34:04;9.80;99.90
33023;DHT22;19390;51.460;5.710;2023-06-04T02:36:30;9.80;99.90
33023;DHT22;19390;51.460;5.710;2023-06-04T02:38:56;9.70;99.90
33023;DHT22;19390;51.460;5.710;2023-06-04T02:41:22;9.60;99.90
33023;DHT22;19390;51.460;5.710;2023-06-04T02:43:48;9.50;99.90
33023;DHT22;19390;51.460;5.710;2023-06-04T02:46:14;9.50;99.90
33023;DHT22;19390;51.460;5.710;2023-06-04T02:48:40;9.40;99.90
33023;DHT22;19390;51.460;5.710;2023-06-04T02:51:05;9.40;99.90
33023;DHT22;19390;51.460;5.710;2023-06-04T02:53:31;9.50;99.90
33023;DHT22;19390;51.460;5.710;2023-06-04T02:55:56;9.70;99.90
33023;DHT22;19390;51.460;5.710;2023-06-04T02:58:25;9.70;99.90
33023;DHT22;19390;51.460;5.710;2023-06-04T03:00:52;9.70;99.90
33023;DHT22;19390;51.460;5.710;2023-06-04T03:03:18;9.70;99.90
33023;DHT22;19390;51.460;5.710;2023-06-04T03:05:43;9.80;99.90
33023;DHT22;19390;51.460;5.710;2023-06-04T03:08:09;9.80;99.90
33023;DHT22;19390;51.460;5.710;2023-06-04T03:10:35;9.70;99.90
33023;DHT22;19390;51.460;5.710;2023-06-04T03:13:00;9.70;99.90
33023;DHT22;19390;51.460;5.710;2023-06-04T03:15:26;9.70;99.90
33023;DHT22;19390;51.460;5.710;2023-06-04T03:17:52;9.50;99.90
33023;DHT22;19390;51.460;5.710;2023-06-04T03:20:17;9.60;99.90
33023;DHT22;19390;51.460;5.710;2023-06-04T03:22:43;9.50;99.90
33023;DHT22;19390;51.460;5.710;2023-06-04T03:25:09;9.50;99.90
33023;DHT22;19390;51.460;5.710;2023-06-04T03:27:35;9.40;99.90
33023;DHT22;19390;51.460;5.710;2023-06-04T03:30:01;9.50;99.90
33023;DHT22;19390;51.460;5.710;2023-06-04T03:32:27;9.50;99.90
33023;DHT22;19390;51.460;5.710;2023-06-04T03:34:53;9.40;99.90
33023;DHT22;19390;51.460;5.710;2023-06-04T03:37:18;9.40;99.90
33023;DHT22;19390;51.460;5.710;2023-06-04T03:39:44;9.30;99.90
33023;DHT22;19390;51.460;5.710;2023-06-04T03:42:09;9.30;99.90
33023;DHT22;19390;51.460;5.710;2023-06-04T03:44:35;9.40;99.90
33023;DHT22;19390;51.460;5.710;2023-06-04T03:47:01;9.50;99.90
33023;DHT22;19390;51.460;5.710;2023-06-04T03:49:26;9.50;99.90
33023;DHT22;19390;51.460;5.710;2023-06-04T03:51:52;9.50;99.90
33023;DHT22;19390;51.460;5.710;2023-06-04T03:54:18;9.60;99.90
33023;DHT22;19390;51.460;5.710;2023-06-04T03:56:45;9.60;99.90
33023;DHT22;19390;51.460;5.710;2023-06-04T03:59:10;9.50;99.90
33023;DHT22;19390;51.460;5.710;2023-06-04T04:01:36;9.50;99.90
33023;DHT22;19390;51.460;5.710;2023-06-04T04:04:02;9.60;99.90
33023;DHT22;19390;51.460;5.710;2023-06-04T04:06:27;9.60;99.90
33023;DHT22;19390;51.460;5.710;2023-06-04T04:08:53;9.40;99.90
33023;DHT22;19390;51.460;5.710;2023-06-04T04:11:19;9.50;99.90
33023;DHT22;19390;51.460;5.710;2023-06-04T04:13:45;9.60;99.90
33023;DHT22;19390;51.460;5.710;2023-06-04T04:16:11;9.60;99.90
33023;DHT22;19390;51.460;5.710;2023-06-04T04:18:37;9.70;99.90
33023;DHT22;19390;51.460;5.710;2023-06-04T04:21:04;9.80;99.90
33023;DHT22;19390;51.460;5.710;2023-06-04T04:23:31;9.80;99.90
33023;DHT22;19390;51.460;5.710;2023-06-04T04:25:58;9.80;99.90
33023;DHT22;19390;51.460;5.710;2023-06-04T04:28:24;9.90;99.90
33023;DHT22;19390;51.460;5.710;2023-06-04T04:30:54;9.80;99.90
33023;DHT22;19390;51.460;5.710;2023-06-04T04:33:20;9.90;99.90
33023;DHT22;19390;51.460;5.710;2023-06-04T04:35:45;10.10;99.90
33023;DHT22;19390;51.460;5.710;2023-06-04T04:38:11;10.10;99.90
33023;DHT22;19390;51.460;5.710;2023-06-04T04:40:37;10.20;99.90
33023;DHT22;19390;51.460;5.710;2023-06-04T04:43:02;10.30;99.90
33023;DHT22;19390;51.460;5.710;2023-06-04T04:45:29;10.40;99.90
33023;DHT22;19390;51.460;5.710;2023-06-04T04:47:54;10.50;99.90
33023;DHT22;19390;51.460;5.710;2023-06-04T04:50:20;10.90;99.90
33023;DHT22;19390;51.460;5.710;2023-06-04T04:52:46;11.40;99.90
33023;DHT22;19390;51.460;5.710;2023-06-04T04:55:11;11.40;99.90
33023;DHT22;19390;51.460;5.710;2023-06-04T04:57:38;11.30;99.90
33023;DHT22;19390;51.460;5.710;2023-06-04T05:00:04;11.30;99.90
33023;DHT22;19390;51.460;5.710;2023-06-04T05:02:31;11.50;99.90
33023;DHT22;19390;51.460;5.710;2023-06-04T05:04:57;12.80;99.90
33023;DHT22;19390;51.460;5.710;2023-06-04T05:07:22;14.50;99.90
33023;DHT22;19390;51.460;5.710;2023-06-04T05:09:50;15.60;99.90
33023;DHT22;19390;51.460;5.710;2023-06-04T05:12:16;16.00;99.90
33023;DHT22;19390;51.460;5.710;2023-06-04T05:14:41;16.30;99.90
33023;DHT22;19390;51.460;5.710;2023-06-04T05:17:07;16.20;99.90
33023;DHT22;19390;51.460;5.710;2023-06-04T05:19:36;16.90;99.90
33023;DHT22;19390;51.460;5.710;2023-06-04T05:22:02;17.10;99.90
33023;DHT22;19390;51.460;5.710;2023-06-04T05:24:28;17.20;99.90
33023;DHT22;19390;51.460;5.710;2023-06-04T05:26:55;17.40;99.90
33023;DHT22;19390;51.460;5.710;2023-06-04T05:29:22;17.60;99.90
33023;DHT22;19390;51.460;5.710;2023-06-04T05:31:47;18.00;99.90
33023;DHT22;19390;51.460;5.710;2023-06-04T05:34:13;17.90;99.90
33023;DHT22;19390;51.460;5.710;2023-06-04T05:36:42;17.60;99.90
33023;DHT22;19390;51.460;5.710;2023-06-04T05:39:07;18.50;99.90
33023;DHT22;19390;51.460;5.710;2023-06-04T05:41:35;19.20;99.90
33023;DHT22;19390;51.460;5.710;2023-06-04T05:44:01;18.90;99.90
33023;DHT22;19390;51.460;5.710;2023-06-04T05:46:27;19.50;99.90
33023;DHT22;19390;51.460;5.710;2023-06-04T05:48:53;19.90;99.90
33023;DHT22;19390;51.460;5.710;2023-06-04T05:51:19;19.70;99.90
33023;DHT22;19390;51.460;5.710;2023-06-04T05:53:46;21.30;99.90
33023;DHT22;19390;51.460;5.710;2023-06-04T05:56:11;21.70;99.90
33023;DHT22;19390;51.460;5.710;2023-06-04T05:58:37;20.70;99.90
33023;DHT22;19390;51.460;5.710;2023-06-04T06:01:03;21.00;99.90
33023;DHT22;19390;51.460;5.710;2023-06-04T06:03:28;20.70;99.90
33023;DHT22;19390;51.460;5.710;2023-06-04T06:05:54;22.40;99.90
33023;DHT22;19390;51.460;5.710;2023-06-04T06:08:21;22.20;99.90
33023;DHT22;19390;51.460;5.710;2023-06-04T06:10:46;22.70;99.90
33023;DHT22;19390;51.460;5.710;2023-06-04T06:13:12;22.40;99.90
33023;DHT22;19390;51.460;5.710;2023-06-04T06:15:38;22.20;99.90
33023;DHT22;19390;51.460;5.710;2023-06-04T06:18:04;21.50;99.90
33023;DHT22;19390;51.460;5.710;2023-06-04T06:20:30;22.50;99.90
33023;DHT22;19390;51.460;5.710;2023-06-04T06:22:55;23.10;99.90
33023;DHT22;19390;51.460;5.710;2023-06-04T06:25:21;24.00;99.90
33023;DHT22;19390;51.460;5.710;2023-06-04T06:27:47;25.00;99.90
33023;DHT22;19390;51.460;5.710;2023-06-04T06:30:13;23.20;99.90
33023;DHT22;19390;51.460;5.710;2023-06-04T06:32:39;22.90;99.90
33023;DHT22;19390;51.460;5.710;2023-06-04T06:35:05;22.30;99.90
33023;DHT22;19390;51.460;5.710;2023-06-04T06:37:32;23.60;99.90
33023;DHT22;19390;51.460;5.710;2023-06-04T06:39:57;23.00;99.90
33023;DHT22;19390;51.460;5.710;2023-06-04T06:42:23;24.60;99.90
33023;DHT22;19390;51.460;5.710;2023-06-04T06:44:48;25.30;99.90
33023;DHT22;19390;51.460;5.710;2023-06-04T06:47:14;25.20;99.90
33023;DHT22;19390;51.460;5.710;2023-06-04T06:49:43;24.50;99.90
33023;DHT22;19390;51.460;5.710;2023-06-04T06:52:09;24.30;99.90
33023;DHT22;19390;51.460;5.710;2023-06-04T06:54:35;25.00;99.90
33023;DHT22;19390;51.460;5.710;2023-06-04T06:57:01;26.30;99.90
33023;DHT22;19390;51.460;5.710;2023-06-04T06:59:28;26.50;99.90
33023;DHT22;19390;51.460;5.710;2023-06-04T07:01:54;25.80;99.90
33023;DHT22;19390;51.460;5.710;2023-06-04T07:04:20;27.10;99.90
33023;DHT22;19390;51.460;5.710;2023-06-04T07:06:46;27.90;99.90
33023;DHT22;19390;51.460;5.710;2023-06-04T07:09:11;28.20;99.90
33023;DHT22;19390;51.460;5.710;2023-06-04T07:11:37;27.60;99.90
33023;DHT22;19390;51.460;5.710;2023-06-04T07:14:03;26.50;99.90
33023;DHT22;19390;51.460;5.710;2023-06-04T07:16:29;27.10;99.90
33023;DHT22;19390;51.460;5.710;2023-06-04T07:18:55;27.50;99.90
33023;DHT22;19390;51.460;5.710;2023-06-04T07:21:20;26.80;99.90
33023;DHT22;19390;51.460;5.710;2023-06-04T07:23:49;27.90;99.90
33023;DHT22;19390;51.460;5.710;2023-06-04T07:26:16;28.20;99.90
33023;DHT22;19390;51.460;5.710;2023-06-04T07:28:43;27.00;99.90
33023;DHT22;19390;51.460;5.710;2023-06-04T07:31:09;28.00;99.90
33023;DHT22;19390;51.460;5.710;2023-06-04T07:33:35;27.50;99.90
33023;DHT22;19390;51.460;5.710;2023-06-04T07:36:14;27.80;99.90
33023;DHT22;19390;51.460;5.710;2023-06-04T07:38:40;28.00;99.90
33023;DHT22;19390;51.460;5.710;2023-06-04T07:41:06;26.10;99.90
33023;DHT22;19390;51.460;5.710;2023-06-04T07:43:33;28.20;99.90
33023;DHT22;19390;51.460;5.710;2023-06-04T07:46:00;29.10;99.90
33023;DHT22;19390;51.460;5.710;2023-06-04T07:48:26;29.00;99.90
33023;DHT22;19390;51.460;5.710;2023-06-04T07:50:57;29.00;99.90
33023;DHT22;19390;51.460;5.710;2023-06-04T07:53:22;28.10;99.90
33023;DHT22;19390;51.460;5.710;2023-06-04T07:55:48;29.90;99.90
33023;DHT22;19390;51.460;5.710;2023-06-04T07:58:14;30.50;99.90
33023;DHT22;19390;51.460;5.710;2023-06-04T08:00:40;30.20;99.90
33023;DHT22;19390;51.460;5.710;2023-06-04T08:03:05;31.00;99.90
33023;DHT22;19390;51.460;5.710;2023-06-04T08:05:31;30.70;99.90
33023;DHT22;19390;51.460;5.710;2023-06-04T08:07:57;31.20;99.90
33023;DHT22;19390;51.460;5.710;2023-06-04T08:10:22;31.50;99.90
33023;DHT22;19390;51.460;5.710;2023-06-04T08:12:48;31.20;99.90
33023;DHT22;19390;51.460;5.710;2023-06-04T08:15:14;29.30;99.90
33023;DHT22;19390;51.460;5.710;2023-06-04T08:17:40;30.80;99.90
33023;DHT22;19390;51.460;5.710;2023-06-04T08:20:06;30.40;99.90
33023;DHT22;19390;51.460;5.710;2023-06-04T08:22:32;29.10;99.90
33023;DHT22;19390;51.460;5.710;2023-06-04T08:24:57;30.40;99.90
33023;DHT22;19390;51.460;5.710;2023-06-04T08:27:23;31.20;99.90
33023;DHT22;19390;51.460;5.710;2023-06-04T08:29:48;31.20;99.90
33023;DHT22;19390;51.460;5.710;2023-06-04T08:32:14;31.40;99.90
33023;DHT22;19390;51.460;5.710;2023-06-04T08:34:40;30.40;99.90
33023;DHT22;19390;51.460;5.710;2023-06-04T08:37:05;29.60;99.90
33023;DHT22;19390;51.460;5.710;2023-06-04T08:39:31;31.30;99.90
33023;DHT22;19390;51.460;5.710;2023-06-04T08:42:04;30.90;99.90
33023;DHT22;19390;51.460;5.710;2023-06-04T08:44:33;30.20;99.90
33023;DHT22;19390;51.460;5.710;2023-06-04T08:47:03;30.10;99.90
33023;DHT22;19390;51.460;5.710;2023-06-04T08:49:34;32.30;99.90
33023;DHT22;19390;51.460;5.710;2023-06-04T08:52:01;33.10;99.90
33023;DHT22;19390;51.460;5.710;2023-06-04T08:54:29;32.80;99.90
33023;DHT22;19390;51.460;5.710;2023-06-04T08:56:56;30.30;99.90
33023;DHT22;19390;51.460;5.710;2023-06-04T08:59:22;32.90;99.90
33023;DHT22;19390;51.460;5.710;2023-06-04T09:01:51;33.30;99.90
33023;DHT22;19390;51.460;5.710;2023-06-04T09:04:18;31.90;99.90
33023;DHT22;19390;51.460;5.710;2023-06-04T09:06:44;33.10;99.90
33023;DHT22;19390;51.460;5.710;2023-06-04T09:09:12;30.30;99.90
33023;DHT22;19390;51.460;5.710;2023-06-04T09:11:58;27.60;99.90
33023;DHT22;19390;51.460;5.710;2023-06-04T09:14:27;27.70;99.90
33023;DHT22;19390;51.460;5.710;2023-06-04T09:16:53;29.50;99.90
33023;DHT22;19390;51.460;5.710;2023-06-04T09:19:21;32.50;99.90
33023;DHT22;19390;51.460;5.710;2023-06-04T09:21:48;29.70;99.90
33023;DHT22;19390;51.460;5.710;2023-06-04T09:24:13;31.60;99.90
33023;DHT22;19390;51.460;5.710;2023-06-04T09:26:39;31.10;99.90
33023;DHT22;19390;51.460;5.710;2023-06-04T09:29:05;31.00;99.90
33023;DHT22;19390;51.460;5.710;2023-06-04T09:31:31;29.40;99.90
33023;DHT22;19390;51.460;5.710;2023-06-04T09:34:03;31.90;99.90
33023;DHT22;19390;51.460;5.710;2023-06-04T09:36:33;32.80;99.90
33023;DHT22;19390;51.460;5.710;2023-06-04T09:39:00;30.80;99.90
33023;DHT22;19390;51.460;5.710;2023-06-04T09:41:26;30.50;99.90
33023;DHT22;19390;51.460;5.710;2023-06-04T09:44:02;31.80;99.90
33023;DHT22;19390;51.460;5.710;2023-06-04T09:46:28;32.00;99.90
33023;DHT22;19390;51.460;5.710;2023-06-04T09:49:05;30.70;99.90
33023;DHT22;19390;51.460;5.710;2023-06-04T09:51:31;29.60;99.90
33023;DHT22;19390;51.460;5.710;2023-06-04T09:53:58;30.50;99.90
33023;DHT22;19390;51.460;5.710;2023-06-04T09:56:24;31.10;99.90
33023;DHT22;19390;51.460;5.710;2023-06-04T09:58:54;31.70;99.90
33023;DHT22;19390;51.460;5.710;2023-06-04T10:01:23;32.80;99.90
33023;DHT22;19390;51.460;5.710;2023-06-04T10:03:53;34.00;99.90
33023;DHT22;19390;51.460;5.710;2023-06-04T10:06:20;33.30;99.90
33023;DHT22;19390;51.460;5.710;2023-06-04T10:08:48;31.90;99.90
33023;DHT22;19390;51.460;5.710;2023-06-04T10:11:17;32.90;99.90
33023;DHT22;19390;51.460;5.710;2023-06-04T10:13:53;31.80;99.90
33023;DHT22;19390;51.460;5.710;2023-06-04T10:16:21;32.60;99.90
33023;DHT22;19390;51.460;5.710;2023-06-04T10:18:49;31.90;99.90
33023;DHT22;19390;51.460;5.710;2023-06-04T10:21:17;29.60;99.90
33023;DHT22;19390;51.460;5.710;2023-06-04T10:23:44;31.20;99.90
33023;DHT22;19390;51.460;5.710;2023-06-04T10:26:16;31.30;99.90
33023;DHT22;19390;51.460;5.710;2023-06-04T10:28:42;32.00;99.90
33023;DHT22;19390;51.460;5.710;2023-06-04T10:31:09;31.50;99.90
33023;DHT22;19390;51.460;5.710;2023-06-04T10:33:35;32.70;99.90
33023;DHT22;19390;51.460;5.710;2023-06-04T10:36:18;32.30;99.90
33023;DHT22;19390;51.460;5.710;2023-06-04T10:38:49;32.00;99.90
33023;DHT22;19390;51.460;5.710;2023-06-04T10:41:16;32.30;99.90
33023;DHT22;19390;51.460;5.710;2023-06-04T10:43:47;33.70;99.90
33023;DHT22;19390;51.460;5.710;2023-06-04T10:46:19;32.70;99.90
33023;DHT22;19390;51.460;5.710;2023-06-04T10:48:51;29.90;99.90
33023;DHT22;19390;51.460;5.710;2023-06-04T10:51:29;32.80;99.90
33023;DHT22;19390;51.460;5.710;2023-06-04T10:53:59;32.20;99.90
33023;DHT22;19390;51.460;5.710;2023-06-04T10:56:29;32.20;99.90
33023;DHT22;19390;51.460;5.710;2023-06-04T10:58:57;31.50;99.90
33023;DHT22;19390;51.460;5.710;2023-06-04T11:01:29;32.00;99.90
33023;DHT22;19390;51.460;5.710;2023-06-04T11:03:55;30.60;99.90
33023;DHT22;19390;51.460;5.710;2023-06-04T11:06:22;31.00;99.90
33023;DHT22;19390;51.460;5.710;2023-06-04T11:09:02;29.50;99.90
33023;DHT22;19390;51.460;5.710;2023-06-04T11:11:28;33.20;99.90
33023;DHT22;19390;51.460;5.710;2023-06-04T11:13:53;32.40;99.90
33023;DHT22;19390;51.460;5.710;2023-06-04T11:16:20;32.60;99.90
33023;DHT22;19390;51.460;5.710;2023-06-04T11:18:56;33.00;99.90
33023;DHT22;19390;51.460;5.710;2023-06-04T11:21:22;30.40;99.90
33023;DHT22;19390;51.460;5.710;2023-06-04T11:23:49;28.10;99.90
33023;DHT22;19390;51.460;5.710;2023-06-04T11:26:20;28.20;99.90
33023;DHT22;19390;51.460;5.710;2023-06-04T11:28:49;30.20;99.90
33023;DHT22;19390;51.460;5.710;2023-06-04T11:31:14;30.80;99.90
33023;DHT22;19390;51.460;5.710;2023-06-04T11:33:47;33.00;99.90
33023;DHT22;19390;51.460;5.710;2023-06-04T11:36:23;29.40;99.90
33023;DHT22;19390;51.460;5.710;2023-06-04T11:38:59;28.70;99.90
33023;DHT22;19390;51.460;5.710;2023-06-04T11:41:29;29.30;99.90
33023;DHT22;19390;51.460;5.710;2023-06-04T11:43:56;31.80;99.90
33023;DHT22;19390;51.460;5.710;2023-06-04T11:46:23;33.10;99.90
33023;DHT22;19390;51.460;5.710;2023-06-04T11:48:51;32.70;99.90
33023;DHT22;19390;51.460;5.710;2023-06-04T11:51:17;31.60;99.90
33023;DHT22;19390;51.460;5.710;2023-06-04T11:53:44;31.60;99.90
33023;DHT22;19390;51.460;5.710;2023-06-04T11:56:10;28.90;99.90
33023;DHT22;19390;51.460;5.710;2023-06-04T11:58:37;30.40;99.90
33023;DHT22;19390;51.460;5.710;2023-06-04T12:01:04;32.00;99.90
33023;DHT22;19390;51.460;5.710;2023-06-04T12:03:37;32.50;99.90
33023;DHT22;19390;51.460;5.710;2023-06-04T12:06:19;31.90;99.90
33023;DHT22;19390;51.460;5.710;2023-06-04T12:08:46;32.30;99.90
33023;DHT22;19390;51.460;5.710;2023-06-04T12:11:34;33.50;99.90
33023;DHT22;19390;51.460;5.710;2023-06-04T12:14:03;33.40;99.90
33023;DHT22;19390;51.460;5.710;2023-06-04T12:16:29;32.30;99.90
33023;DHT22;19390;51.460;5.710;2023-06-04T12:19:11;30.10;99.90
33023;DHT22;19390;51.460;5.710;2023-06-04T12:21:38;31.30;99.90
33023;DHT22;19390;51.460;5.710;2023-06-04T12:24:11;32.30;99.90
33023;DHT22;19390;51.460;5.710;2023-06-04T12:26:37;33.00;99.90
33023;DHT22;19390;51.460;5.710;2023-06-04T12:29:10;33.00;99.90
33023;DHT22;19390;51.460;5.710;2023-06-04T12:31:40;32.10;99.90
33023;DHT22;19390;51.460;5.710;2023-06-04T12:34:06;31.50;99.90
33023;DHT22;19390;51.460;5.710;2023-06-04T12:36:32;30.20;99.90
33023;DHT22;19390;51.460;5.710;2023-06-04T12:39:02;29.60;99.90
33023;DHT22;19390;51.460;5.710;2023-06-04T12:41:29;31.70;99.90
33023;DHT22;19390;51.460;5.710;2023-06-04T12:43:55;31.70;99.90
33023;DHT22;19390;51.460;5.710;2023-06-04T12:46:22;32.70;99.90
33023;DHT22;19390;51.460;5.710;2023-06-04T12:48:49;31.20;99.90
33023;DHT22;19390;51.460;5.710;2023-06-04T12:51:14;30.70;99.90
33023;DHT22;19390;51.460;5.710;2023-06-04T12:53:41;30.60;99.90
33023;DHT22;19390;51.460;5.710;2023-06-04T12:56:07;31.30;99.90
33023;DHT22;19390;51.460;5.710;2023-06-04T12:58:33;33.20;99.90
33023;DHT22;19390;51.460;5.710;2023-06-04T13:00:59;32.30;99.90
33023;DHT22;19390;51.460;5.710;2023-06-04T13:03:26;31.50;99.90
33023;DHT22;19390;51.460;5.710;2023-06-04T13:05:51;30.80;99.90
33023;DHT22;19390;51.460;5.710;2023-06-04T13:08:21;32.10;99.90
33023;DHT22;19390;51.460;5.710;2023-06-04T13:10:48;30.90;99.90
33023;DHT22;19390;51.460;5.710;2023-06-04T13:13:14;30.20;99.90
33023;DHT22;19390;51.460;5.710;2023-06-04T13:15:41;30.10;99.90
33023;DHT22;19390;51.460;5.710;2023-06-04T13:18:08;29.30;99.90
33023;DHT22;19390;51.460;5.710;2023-06-04T13:20:33;30.60;99.90
33023;DHT22;19390;51.460;5.710;2023-06-04T13:23:00;31.10;99.90
33023;DHT22;19390;51.460;5.710;2023-06-04T13:25:26;30.00;99.90
33023;DHT22;19390;51.460;5.710;2023-06-04T13:27:54;30.40;99.90
33023;DHT22;19390;51.460;5.710;2023-06-04T13:30:20;29.20;99.90
33023;DHT22;19390;51.460;5.710;2023-06-04T13:32:46;28.70;99.90
33023;DHT22;19390;51.460;5.710;2023-06-04T13:35:12;28.70;99.90
33023;DHT22;19390;51.460;5.710;2023-06-04T13:37:37;28.10;99.90
33023;DHT22;19390;51.460;5.710;2023-06-04T13:40:03;27.60;99.90
33023;DHT22;19390;51.460;5.710;2023-06-04T13:42:29;28.60;99.90
33023;DHT22;19390;51.460;5.710;2023-06-04T13:44:55;27.70;99.90
33023;DHT22;19390;51.460;5.710;2023-06-04T13:47:21;27.90;99.90
33023;DHT22;19390;51.460;5.710;2023-06-04T13:49:47;29.30;99.90
33023;DHT22;19390;51.460;5.710;2023-06-04T13:52:13;29.40;99.90
33023;DHT22;19390;51.460;5.710;2023-06-04T13:54:38;28.10;99.90
33023;DHT22;19390;51.460;5.710;2023-06-04T13:57:04;27.70;99.90
33023;DHT22;19390;51.460;5.710;2023-06-04T13:59:34;28.20;99.90
33023;DHT22;19390;51.460;5.710;2023-06-04T14:02:00;28.60;99.90
33023;DHT22;19390;51.460;5.710;2023-06-04T14:04:25;27.40;99.90
33023;DHT22;19390;51.460;5.710;2023-06-04T14:06:51;28.20;99.90
33023;DHT22;19390;51.460;5.710;2023-06-04T14:09:17;29.10;99.90
33023;DHT22;19390;51.460;5.710;2023-06-04T14:11:42;29.00;99.90
33023;DHT22;19390;51.460;5.710;2023-06-04T14:14:08;28.20;99.90
33023;DHT22;19390;51.460;5.710;2023-06-04T14:16:35;28.00;99.90
33023;DHT22;19390;51.460;5.710;2023-06-04T14:19:01;28.20;99.90
33023;DHT22;19390;51.460;5.710;2023-06-04T14:21:27;27.80;99.90
33023;DHT22;19390;51.460;5.710;2023-06-04T14:23:53;28.10;99.90
33023;DHT22;19390;51.460;5.710;2023-06-04T14:26:19;27.40;99.90
33023;DHT22;19390;51.460;5.710;2023-06-04T14:28:46;26.60;99.90
33023;DHT22;19390;51.460;5.710;2023-06-04T14:31:11;26.70;99.90
33023;DHT22;19390;51.460;5.710;2023-06-04T14:33:37;27.50;99.90
33023;DHT22;19390;51.460;5.710;2023-06-04T14:36:03;28.30;99.90
33023;DHT22;19390;51.460;5.710;2023-06-04T14:38:29;27.90;99.90
33023;DHT22;19390;51.460;5.710;2023-06-04T14:40:55;27.50;99.90
33023;DHT22;19390;51.460;5.710;2023-06-04T14:43:22;26.70;99.90
33023;DHT22;19390;51.460;5.710;2023-06-04T14:45:48;27.40;99.90
33023;DHT22;19390;51.460;5.710;2023-06-04T14:48:14;27.30;99.90
33023;DHT22;19390;51.460;5.710;2023-06-04T14:50:40;28.00;99.90
33023;DHT22;19390;51.460;5.710;2023-06-04T14:53:05;27.20;99.90
33023;DHT22;19390;51.460;5.710;2023-06-04T14:55:34;26.90;99.90
33023;DHT22;19390;51.460;5.710;2023-06-04T14:58:00;26.40;99.90
33023;DHT22;19390;51.460;5.710;2023-06-04T15:00:26;26.50;99.90
33023;DHT22;19390;51.460;5.710;2023-06-04T15:02:51;27.10;99.90
33023;DHT22;19390;51.460;5.710;2023-06-04T15:05:17;26.80;99.90
33023;DHT22;19390;51.460;5.710;2023-06-04T15:07:43;26.00;99.90
33023;DHT22;19390;51.460;5.710;2023-06-04T15:10:08;26.60;99.90
33023;DHT22;19390;51.460;5.710;2023-06-04T15:12:35;26.20;99.90
33023;DHT22;19390;51.460;5.710;2023-06-04T15:15:06;26.40;99.90
33023;DHT22;19390;51.460;5.710;2023-06-04T15:17:31;26.70;99.90
33023;DHT22;19390;51.460;5.710;2023-06-04T15:19:57;25.90;99.90
33023;DHT22;19390;51.460;5.710;2023-06-04T15:22:23;26.00;99.90
33023;DHT22;19390;51.460;5.710;2023-06-04T15:24:50;26.40;99.90
33023;DHT22;19390;51.460;5.710;2023-06-04T15:27:15;25.60;99.90
33023;DHT22;19390;51.460;5.710;2023-06-04T15:29:42;25.80;99.90
33023;DHT22;19390;51.460;5.710;2023-06-04T15:32:08;25.30;99.90
33023;DHT22;19390;51.460;5.710;2023-06-04T15:34:33;25.30;99.90
33023;DHT22;19390;51.460;5.710;2023-06-04T15:36:59;25.60;99.90
33023;DHT22;19390;51.460;5.710;2023-06-04T15:39:25;25.60;99.90